createdAt,value
2023-03-27T00:01:07.898Z,7.50
2023-03-27T00:19:24.307Z,8.00
2023-03-27T00:46:09.113Z,8.30
2023-03-27T00:50:57.203Z,8.20
2023-03-27T00:52:46.497Z,8.10
2023-03-27T01:25:34.641Z,7.70
2023-03-27T01:29:08.420Z,7.60
2023-03-27T01:37:13.481Z,7.50
2023-03-27T01:39:56.638Z,7.40
2023-03-27T01:43:06.531Z,7.30
2023-03-27T01:45:44.296Z,7.20
2023-03-27T01:48:25.494Z,7.30
2023-03-27T01:51:02.937Z,7.00
2023-03-27T01:53:39.966Z,6.90
2023-03-27T01:56:33.716Z,6.80
2023-03-27T01:59:14.368Z,6.80
2023-03-27T02:01:53.731Z,6.90
2023-03-27T02:04:29.004Z,6.80
2023-03-27T02:07:08.255Z,6.70
2023-03-27T02:09:43.817Z,6.50
2023-03-27T02:12:19.848Z,6.40
2023-03-27T02:14:56.446Z,6.40
2023-03-27T02:17:34.150Z,6.10
2023-03-27T02:20:11.536Z,6.00
2023-03-27T02:22:40.882Z,6.00
2023-03-27T02:25:38.924Z,6.00
2023-03-27T02:28:37.910Z,6.00
2023-03-27T02:31:32.480Z,6.10
2023-03-27T02:34:33.939Z,6.10
2023-03-27T02:37:16.428Z,6.10
2023-03-27T02:39:57.293Z,6.00
2023-03-27T02:42:37.074Z,6.00
2023-03-27T02:45:20.122Z,5.90
2023-03-27T02:47:55.156Z,6.00
2023-03-27T02:50:34.796Z,6.00
2023-03-27T02:53:14.118Z,6.00
2023-03-27T02:55:47.548Z,5.90
2023-03-27T02:58:29.064Z,5.80
2023-03-27T03:01:03.778Z,5.90
2023-03-27T03:03:43.930Z,5.80
2023-03-27T03:06:14.531Z,5.60
2023-03-27T03:08:51.648Z,5.60
2023-03-27T03:11:24.199Z,5.70
2023-03-27T03:13:52.933Z,5.50
2023-03-27T03:16:24.787Z,5.20
2023-03-27T03:18:53.630Z,5.10
2023-03-27T03:21:34.221Z,5.30
2023-03-27T03:24:10.766Z,5.30
2023-03-27T03:26:43.139Z,5.40
2023-03-27T03:29:14.472Z,5.30
2023-03-27T03:31:44.841Z,5.30
2023-03-27T03:34:18.270Z,5.10
2023-03-27T03:36:49.938Z,4.70
2023-03-27T03:39:24.663Z,4.80
2023-03-27T03:41:54.670Z,4.80
2023-03-27T03:44:23.602Z,4.60
2023-03-27T03:46:54.033Z,4.90
2023-03-27T03:49:33.162Z,4.80
2023-03-27T03:52:04.376Z,4.90
2023-03-27T03:54:36.239Z,4.90
2023-03-27T03:57:09.126Z,4.90
2023-03-27T03:59:38.575Z,4.80
2023-03-27T04:02:18.336Z,4.70
2023-03-27T04:04:49.931Z,4.80
2023-03-27T04:07:21.812Z,4.80
2023-03-27T04:09:52.596Z,4.90
2023-03-27T04:12:24.136Z,4.90
2023-03-27T04:14:53.168Z,4.70
2023-03-27T04:17:26.691Z,4.90
2023-03-27T04:19:55.640Z,4.70
2023-03-27T04:22:24.662Z,4.60
2023-03-27T04:24:59.996Z,4.60
2023-03-27T04:27:33.384Z,4.60
2023-03-27T04:30:02.459Z,4.60
2023-03-27T04:32:41.152Z,4.30
2023-03-27T04:35:18.998Z,4.20
2023-03-27T04:37:53.032Z,4.10
2023-03-27T04:40:25.570Z,4.20
2023-03-27T04:42:58.928Z,4.20
2023-03-27T04:45:28.727Z,4.20
2023-03-27T04:48:01.624Z,4.00
2023-03-27T04:50:41.258Z,4.10
2023-03-27T04:53:48.289Z,4.00
2023-03-27T04:56:26.913Z,4.00
2023-03-27T04:58:56.470Z,3.70
2023-03-27T05:01:49.907Z,3.70
2023-03-27T05:04:21.642Z,3.40
2023-03-27T05:07:00.132Z,3.40
2023-03-27T05:09:40.677Z,3.40
2023-03-27T05:12:23.623Z,3.50
2023-03-27T05:16:17.122Z,3.70
2023-03-27T05:18:38.230Z,3.50
2023-03-27T05:21:31.169Z,3.40
2023-03-27T05:24:10.840Z,3.30
2023-03-27T05:27:24.238Z,3.20
2023-03-27T05:34:05.000Z,3.50
2023-03-27T05:36:36.954Z,3.50
2023-03-27T05:39:13.519Z,3.30
2023-03-27T05:42:06.858Z,3.30
2023-03-27T05:45:07.776Z,3.40
2023-03-27T05:47:47.717Z,3.50
2023-03-27T05:50:18.077Z,3.40
2023-03-27T05:52:56.635Z,3.40
2023-03-27T05:55:28.089Z,3.40
2023-03-27T05:57:58.214Z,3.30
2023-03-27T06:03:31.635Z,3.30
2023-03-27T06:06:11.905Z,3.20
2023-03-27T06:08:44.738Z,2.90
2023-03-27T06:11:21.781Z,3.20
2023-03-27T06:14:37.982Z,3.40
2023-03-27T06:17:09.487Z,3.00
2023-03-27T06:19:46.148Z,3.00
2023-03-27T06:22:48.353Z,3.00
2023-03-27T06:25:23.553Z,3.00
2023-03-27T06:27:53.045Z,3.20
2023-03-27T06:30:27.823Z,3.20
2023-03-27T06:33:00.078Z,3.30
2023-03-27T06:35:33.916Z,3.30
2023-03-27T06:38:04.039Z,3.20
2023-03-27T06:40:38.676Z,3.20
2023-03-27T06:43:11.737Z,3.30
2023-03-27T06:45:46.210Z,3.10
2023-03-27T06:48:21.229Z,3.10
2023-03-27T06:50:53.664Z,3.10
2023-03-27T06:53:28.961Z,3.10
2023-03-27T06:56:00.771Z,3.30
2023-03-27T06:58:29.724Z,3.40
2023-03-27T07:00:58.784Z,3.40
2023-03-27T07:03:27.688Z,3.40
2023-03-27T07:05:57.543Z,3.30
2023-03-27T07:08:40.582Z,3.30
2023-03-27T07:11:12.566Z,3.20
2023-03-27T07:13:44.641Z,3.20
2023-03-27T07:16:19.171Z,3.10
2023-03-27T07:18:47.834Z,3.20
2023-03-27T07:21:16.852Z,3.20
2023-03-27T07:23:46.565Z,3.40
2023-03-27T07:26:23.411Z,3.50
2023-03-27T07:28:55.298Z,3.40
2023-03-27T07:31:50.997Z,3.50
2023-03-27T07:34:32.471Z,3.20
2023-03-27T07:37:02.157Z,3.20
2023-03-27T07:39:31.421Z,3.20
2023-03-27T07:42:03.696Z,3.10
2023-03-27T07:44:37.928Z,3.30
2023-03-27T07:47:07.951Z,3.10
2023-03-27T07:49:40.590Z,3.20
2023-03-27T07:52:13.766Z,3.10
2023-03-27T07:54:46.542Z,3.20
2023-03-27T07:57:24.336Z,3.30
2023-03-27T07:59:55.351Z,3.60
2023-03-27T08:02:25.322Z,3.60
2023-03-27T08:04:55.377Z,3.60
2023-03-27T08:07:25.265Z,3.40
2023-03-27T08:09:57.660Z,3.50
2023-03-27T08:12:27.872Z,3.50
2023-03-27T08:34:46.857Z,3.80
2023-03-27T08:44:10.468Z,3.50
2023-03-27T08:46:50.882Z,3.80
2023-03-27T08:55:00.845Z,4.20
2023-03-27T09:01:41.429Z,5.50
2023-03-27T09:05:01.740Z,5.90
2023-03-27T09:08:04.659Z,6.60
2023-03-27T09:11:25.727Z,7.00
2023-03-27T09:14:51.999Z,7.60
2023-03-27T09:24:45.621Z,8.00
2023-03-27T09:28:03.327Z,8.20
2023-03-27T09:30:34.892Z,8.40
2023-03-27T09:33:14.880Z,8.90
2023-03-27T09:36:16.141Z,9.10
2023-03-27T10:04:20.767Z,10.80
2023-03-27T10:56:51.676Z,9.50
2023-03-27T11:10:25.025Z,10.20
2023-03-27T11:16:58.243Z,9.40
2023-03-27T11:20:18.928Z,10.00
2023-03-27T11:22:59.318Z,11.60
2023-03-27T11:25:49.660Z,12.30
2023-03-27T11:28:27.995Z,12.50
2023-03-27T11:31:12.001Z,11.70
2023-03-27T11:33:52.847Z,10.90
2023-03-27T11:36:39.814Z,10.20
2023-03-27T11:39:22.878Z,10.00
2023-03-27T11:41:58.785Z,10.10
2023-03-27T11:44:30.733Z,10.30
2023-03-27T11:47:36.142Z,10.40
2023-03-27T11:50:48.494Z,11.20
2023-03-27T11:53:38.576Z,12.40
2023-03-27T11:56:29.463Z,13.40
2023-03-27T12:00:00.177Z,14.30
2023-03-27T12:08:17.923Z,13.90
2023-03-27T12:15:15.128Z,12.90
2023-03-27T12:18:32.306Z,12.20
2023-03-27T12:21:51.597Z,11.10
2023-03-27T12:25:21.617Z,10.10
2023-03-27T12:29:24.673Z,8.80
2023-03-27T12:32:23.751Z,7.90
2023-03-27T12:34:56.911Z,7.80
2023-03-27T12:37:31.332Z,9.00
2023-03-27T12:40:02.578Z,9.70
2023-03-27T12:42:52.317Z,9.70
2023-03-27T12:45:24.027Z,9.50
2023-03-27T12:48:21.641Z,9.10
2023-03-27T12:51:00.073Z,8.60
2023-03-27T12:53:50.187Z,8.40
2023-03-27T12:56:37.552Z,8.20
2023-03-27T12:59:22.766Z,8.00
2023-03-27T13:02:42.780Z,8.90
2023-03-27T13:05:48.793Z,10.30
2023-03-27T13:08:41.600Z,11.20
2023-03-27T13:11:25.981Z,12.40
2023-03-27T13:14:41.420Z,13.60
2023-03-27T13:17:36.004Z,14.80
2023-03-27T13:20:20.675Z,15.60
2023-03-27T13:23:10.150Z,16.20
2023-03-27T13:26:00.349Z,16.80
2023-03-27T13:28:36.759Z,17.00
2023-03-27T13:31:24.987Z,16.60
2023-03-27T13:34:14.405Z,16.00
2023-03-27T13:36:48.486Z,15.00
2023-03-27T13:39:24.956Z,15.00
2023-03-27T13:42:10.188Z,15.50
2023-03-27T13:44:55.932Z,16.10
2023-03-27T13:48:26.010Z,16.80
2023-03-27T13:51:19.004Z,17.20
2023-03-27T13:54:48.639Z,17.70
2023-03-27T13:58:00.489Z,16.20
2023-03-27T14:00:47.709Z,14.00
2023-03-27T14:04:19.017Z,12.70
2023-03-27T14:07:19.634Z,11.90
2023-03-27T14:10:08.685Z,10.90
2023-03-27T14:12:54.891Z,9.60
2023-03-27T14:16:06.991Z,8.70
2023-03-27T14:18:59.931Z,8.10
2023-03-27T14:21:38.371Z,8.00
2023-03-27T14:24:21.364Z,8.20
2023-03-27T14:26:50.641Z,8.30
2023-03-27T14:29:21.408Z,8.30
2023-03-27T14:31:51.520Z,8.20
2023-03-27T14:34:25.059Z,8.20
2023-03-27T14:36:54.136Z,8.20
2023-03-27T14:39:27.967Z,7.60
2023-03-27T14:41:59.889Z,7.30
2023-03-27T14:44:32.861Z,7.70
2023-03-27T14:47:06.398Z,9.40
2023-03-27T14:49:45.342Z,10.90
2023-03-27T14:52:25.245Z,12.40
2023-03-27T14:54:57.903Z,14.00
2023-03-27T14:57:29.149Z,15.00
2023-03-27T14:59:58.499Z,16.10
2023-03-27T15:02:32.010Z,16.80
2023-03-27T15:05:09.988Z,17.10
2023-03-27T15:07:39.275Z,17.20
2023-03-27T15:10:28.977Z,16.30
2023-03-27T15:12:58.305Z,15.20
2023-03-27T15:15:39.082Z,13.90
2023-03-27T15:18:15.554Z,12.60
2023-03-27T15:20:45.357Z,11.30
2023-03-27T15:23:21.855Z,10.20
2023-03-27T15:26:02.358Z,9.80
2023-03-27T15:28:38.149Z,9.60
2023-03-27T15:31:08.427Z,9.80
2023-03-27T15:33:43.202Z,10.40
2023-03-27T15:36:26.416Z,11.00
2023-03-27T15:38:57.333Z,10.90
2023-03-27T15:41:54.562Z,10.50
2023-03-27T15:44:27.539Z,10.10
2023-03-27T15:46:59.255Z,9.70
2023-03-27T15:49:34.440Z,9.30
2023-03-27T15:52:30.893Z,9.10
2023-03-27T15:55:04.111Z,9.20
2023-03-27T15:57:34.522Z,9.00
2023-03-27T16:00:10.462Z,8.60
2023-03-27T16:02:39.790Z,8.60
2023-03-27T16:05:10.836Z,8.70
2023-03-27T16:07:48.545Z,8.90
2023-03-27T16:10:31.887Z,9.70
2023-03-27T16:13:06.479Z,10.70
2023-03-27T16:15:39.545Z,10.90
2023-03-27T16:18:22.150Z,10.30
2023-03-27T16:20:51.148Z,9.90
2023-03-27T16:23:20.165Z,9.20
2023-03-27T16:25:49.244Z,8.20
2023-03-27T16:28:19.402Z,7.50
2023-03-27T16:30:48.669Z,7.00
2023-03-27T16:33:22.514Z,6.50
2023-03-27T16:35:52.559Z,5.80
2023-03-27T16:38:22.181Z,5.30
2023-03-27T16:40:51.129Z,5.20
2023-03-27T16:43:21.310Z,5.20
2023-03-27T16:45:50.369Z,5.40
2023-03-27T16:48:19.011Z,5.40
2023-03-27T16:50:48.075Z,6.00
2023-03-27T16:53:17.014Z,6.30
2023-03-27T16:55:46.159Z,6.20
2023-03-27T16:58:14.747Z,6.00
2023-03-27T17:00:44.880Z,5.80
2023-03-27T17:03:13.764Z,6.40
2023-03-27T17:05:44.324Z,6.80
2023-03-27T17:08:13.419Z,7.00
2023-03-27T17:10:42.146Z,7.00
2023-03-27T17:13:10.971Z,6.80
2023-03-27T17:15:40.540Z,6.50
2023-03-27T17:18:10.898Z,6.40
2023-03-27T17:20:39.640Z,6.20
2023-03-27T17:23:08.408Z,6.20
2023-03-27T17:25:37.476Z,6.10
2023-03-27T17:28:07.095Z,6.10
2023-03-27T17:30:40.872Z,5.70
2023-03-27T17:33:14.494Z,5.60
2023-03-27T17:35:43.782Z,5.40
2023-03-27T17:38:12.589Z,5.30
2023-03-27T17:40:42.461Z,5.50
2023-03-27T17:43:11.374Z,5.30
2023-03-27T17:45:42.903Z,5.20
2023-03-27T17:48:14.378Z,5.30
2023-03-27T17:50:51.940Z,4.80
2023-03-27T17:53:26.081Z,4.80
2023-03-27T17:55:56.845Z,4.60
2023-03-27T17:58:30.867Z,4.90
2023-03-27T18:01:19.862Z,5.10
2023-03-27T18:03:54.165Z,5.00
2023-03-27T18:06:23.292Z,5.00
2023-03-27T18:09:03.776Z,4.80
2023-03-27T18:11:34.909Z,4.80
2023-03-27T18:14:19.535Z,4.90
2023-03-27T18:17:06.819Z,4.90
2023-03-27T18:20:14.475Z,5.10
2023-03-27T18:22:49.760Z,4.90
2023-03-27T18:25:42.934Z,5.00
2023-03-27T18:28:12.851Z,5.20
2023-03-27T18:30:43.637Z,5.30
2023-03-27T18:33:15.283Z,5.20
2023-03-27T18:35:45.785Z,5.30
2023-03-27T18:38:31.613Z,5.40
2023-03-27T18:41:04.279Z,5.30
2023-03-27T18:43:33.699Z,5.30
2023-03-27T18:46:07.760Z,5.20
2023-03-27T18:48:37.123Z,4.90
2023-03-27T18:51:34.385Z,4.80
2023-03-27T18:54:03.709Z,4.90
2023-03-27T18:59:58.287Z,4.30
2023-03-27T19:02:47.204Z,4.20
2023-03-27T19:05:17.872Z,4.10
2023-03-27T19:07:51.624Z,4.20
2023-03-27T19:10:26.812Z,4.10
2023-03-27T19:13:36.472Z,4.20
2023-03-27T19:17:22.530Z,4.50
2023-03-27T19:20:04.222Z,4.50
2023-03-27T19:22:34.993Z,4.70
2023-03-27T19:25:05.710Z,4.50
2023-03-27T23:29:49.151Z,2.90
2023-03-27T23:32:40.719Z,2.90
2023-03-27T23:35:50.191Z,2.90
2023-03-27T23:38:46.218Z,2.90
2023-03-27T23:41:26.093Z,2.60
2023-03-27T23:45:08.460Z,2.90
2023-03-27T23:47:35.090Z,2.90
2023-03-27T23:50:05.596Z,2.80
2023-03-27T23:52:40.684Z,2.90
2023-03-27T23:55:14.925Z,2.90
2023-03-27T23:57:47.087Z,2.80
